createdAt,value
2022-09-21T00:00:11.318Z,41.33
2022-09-21T00:03:08.449Z,40.03
2022-09-21T00:06:04.942Z,38.90
2022-09-21T00:08:53.862Z,39.53
2022-09-21T00:11:48.232Z,39.20
2022-09-21T00:14:36.598Z,39.00
2022-09-21T00:17:30.789Z,37.47
2022-09-21T00:20:20.262Z,37.63
2022-09-21T00:23:16.178Z,38.00
2022-09-21T00:26:09.267Z,38.10
2022-09-21T00:28:59.785Z,38.53
2022-09-21T00:31:48.190Z,37.43
2022-09-21T00:34:42.807Z,36.50
2022-09-21T00:37:31.224Z,35.27
2022-09-21T00:40:20.966Z,35.63
2022-09-21T00:43:15.632Z,34.50
2022-09-21T00:46:07.853Z,34.30
2022-09-21T00:48:56.751Z,33.93
2022-09-21T00:51:46.193Z,32.40
2022-09-21T00:54:39.200Z,34.57
2022-09-21T00:57:32.511Z,32.47
2022-09-21T01:00:21.119Z,32.60
2022-09-21T01:03:15.342Z,32.97
2022-09-21T01:06:04.099Z,33.60
2022-09-21T01:09:00.083Z,34.10
2022-09-21T01:12:02.265Z,35.53
2022-09-21T01:15:16.058Z,35.87
2022-09-21T01:18:13.808Z,37.00
2022-09-21T01:21:21.107Z,36.60
2022-09-21T01:24:29.978Z,37.10
2022-09-21T01:27:41.415Z,37.37
2022-09-21T01:30:35.348Z,38.17
2022-09-21T01:33:27.584Z,37.63
2022-09-21T01:36:22.329Z,37.57
2022-09-21T01:39:14.875Z,38.23
2022-09-21T01:42:06.825Z,38.83
2022-09-21T01:44:58.948Z,39.50
2022-09-21T01:47:56.867Z,40.43
2022-09-21T01:50:54.646Z,40.53
2022-09-21T01:53:48.831Z,41.37
2022-09-21T01:56:42.861Z,42.07
2022-09-21T01:59:39.744Z,42.43
2022-09-21T02:02:35.146Z,42.83
2022-09-21T02:05:27.457Z,43.43
2022-09-21T02:08:15.937Z,42.80
2022-09-21T02:11:06.562Z,43.90
2022-09-21T02:13:56.963Z,43.13
2022-09-21T02:16:56.482Z,43.50
2022-09-21T02:19:50.442Z,45.63
2022-09-21T02:22:50.084Z,45.47
2022-09-21T02:25:47.475Z,46.00
2022-09-21T02:28:44.712Z,46.07
2022-09-21T02:31:39.091Z,46.73
2022-09-21T02:34:33.478Z,46.67
2022-09-21T02:37:26.990Z,47.73
2022-09-21T02:40:24.936Z,47.20
2022-09-21T02:43:21.730Z,47.73
2022-09-21T02:46:15.865Z,48.27
2022-09-21T02:49:09.260Z,49.77
2022-09-21T02:52:01.454Z,49.50
2022-09-21T02:54:53.094Z,50.40
2022-09-21T02:57:43.792Z,49.77
2022-09-21T03:00:32.526Z,50.10
2022-09-21T03:03:27.422Z,49.57
2022-09-21T03:06:15.941Z,52.37
2022-09-21T03:09:10.386Z,51.70
2022-09-21T03:11:58.672Z,53.87
2022-09-21T03:14:54.354Z,53.50
2022-09-21T03:17:42.829Z,54.00
2022-09-21T03:20:40.208Z,53.67
2022-09-21T03:23:28.488Z,53.00
2022-09-21T03:26:23.321Z,53.00
2022-09-21T03:29:11.590Z,55.30
2022-09-21T03:32:02.199Z,53.40
2022-09-21T03:34:50.750Z,53.87
2022-09-21T03:37:46.149Z,53.23
2022-09-21T03:40:35.017Z,54.40
2022-09-21T03:43:23.538Z,54.37
2022-09-21T03:46:11.866Z,54.63
2022-09-21T03:49:08.062Z,53.63
2022-09-21T03:51:59.943Z,54.17
2022-09-21T03:54:48.321Z,53.87
2022-09-21T03:57:42.998Z,52.50
2022-09-21T04:00:31.511Z,53.83
2022-09-21T04:03:25.785Z,54.17
2022-09-21T04:06:15.616Z,54.10
2022-09-21T04:09:11.181Z,54.63
2022-09-21T04:11:59.715Z,54.23
2022-09-21T04:14:49.868Z,55.97
2022-09-21T04:17:38.365Z,55.47
2022-09-21T04:20:27.013Z,55.33
2022-09-21T04:23:16.784Z,54.77
2022-09-21T04:26:21.137Z,55.10
2022-09-21T04:29:11.101Z,55.30
2022-09-21T04:31:59.544Z,56.87
2022-09-21T04:34:56.882Z,56.63
2022-09-21T04:37:45.186Z,54.37
2022-09-21T04:40:43.948Z,54.27
2022-09-21T04:43:32.181Z,54.57
2022-09-21T04:46:29.277Z,52.77
2022-09-21T04:49:17.883Z,53.23
2022-09-21T04:52:06.340Z,53.70
2022-09-21T04:55:03.598Z,53.33
2022-09-21T04:57:53.273Z,54.10
2022-09-21T05:00:51.260Z,54.20
2022-09-21T05:03:40.082Z,54.33
2022-09-21T05:06:37.320Z,53.33
2022-09-21T05:09:43.281Z,50.57
2022-09-21T05:12:32.056Z,50.20
2022-09-21T05:15:27.797Z,50.07
2022-09-21T05:18:16.182Z,50.17
2022-09-21T05:21:12.279Z,49.00
2022-09-21T05:24:00.596Z,50.03
2022-09-21T05:26:48.892Z,49.10
2022-09-21T05:29:37.748Z,48.60
2022-09-21T05:32:43.107Z,47.23
2022-09-21T05:35:38.938Z,48.97
2022-09-21T05:38:27.926Z,47.90
2022-09-21T05:41:16.754Z,45.57
2022-09-21T05:44:14.821Z,45.50
2022-09-21T05:47:09.110Z,45.50
2022-09-21T05:50:06.368Z,46.47
2022-09-21T05:53:06.075Z,46.73
2022-09-21T05:55:57.837Z,46.70
2022-09-21T05:58:59.565Z,46.03
2022-09-21T06:02:00.649Z,45.77
2022-09-21T06:04:50.292Z,46.50
2022-09-21T06:07:49.214Z,44.17
2022-09-21T06:10:37.613Z,45.57
2022-09-21T06:13:34.818Z,44.27
2022-09-21T06:16:23.136Z,44.00
2022-09-21T06:19:12.718Z,43.43
2022-09-21T06:22:01.080Z,42.40
2022-09-21T06:24:59.692Z,42.13
2022-09-21T06:27:47.956Z,41.73
2022-09-21T06:30:45.768Z,41.67
2022-09-21T06:33:35.895Z,42.57
2022-09-21T06:36:24.308Z,43.90
2022-09-21T06:39:12.791Z,43.47
2022-09-21T06:42:11.388Z,42.03
2022-09-21T06:44:59.776Z,39.30
2022-09-21T06:47:48.954Z,38.53
2022-09-21T06:50:37.773Z,39.07
2022-09-21T06:53:26.377Z,38.50
2022-09-21T06:56:14.728Z,37.17
2022-09-21T06:59:13.864Z,38.10
2022-09-21T07:02:02.258Z,39.80
2022-09-21T07:04:50.748Z,38.57
2022-09-21T07:07:40.497Z,36.47
2022-09-21T07:10:37.807Z,35.10
2022-09-21T07:13:26.352Z,34.37
2022-09-21T07:16:19.787Z,31.30
2022-09-21T07:19:11.943Z,29.90
2022-09-21T07:22:00.898Z,28.10
2022-09-21T07:24:49.780Z,31.67
2022-09-21T07:27:38.144Z,31.43
2022-09-21T07:30:32.235Z,31.50
2022-09-21T07:33:22.095Z,31.17
2022-09-21T07:36:12.993Z,26.97
2022-09-21T07:39:01.547Z,25.87
2022-09-21T07:41:56.281Z,25.07
2022-09-21T07:44:44.831Z,24.10
2022-09-21T07:47:39.379Z,22.97
2022-09-21T07:50:29.043Z,25.33
2022-09-21T07:53:17.754Z,23.80
2022-09-21T07:56:13.813Z,22.30
2022-09-21T07:59:07.052Z,24.33
2022-09-21T08:01:55.461Z,27.27
2022-09-21T08:04:53.672Z,23.93
2022-09-21T08:07:43.466Z,26.90
2022-09-21T08:10:33.367Z,25.80
2022-09-21T08:13:21.663Z,24.37
2022-09-21T08:16:16.553Z,22.03
2022-09-21T08:19:06.578Z,22.30
2022-09-21T08:22:01.408Z,25.07
2022-09-21T08:24:52.679Z,32.93
2022-09-21T08:27:42.546Z,35.93
2022-09-21T08:30:39.976Z,38.07
2022-09-21T08:33:29.527Z,36.70
2022-09-21T08:36:21.355Z,35.57
2022-09-21T08:39:10.382Z,34.00
2022-09-21T08:42:31.548Z,34.77
2022-09-21T08:45:22.534Z,34.87
2022-09-21T08:48:16.429Z,34.90
2022-09-21T08:51:08.221Z,36.17
2022-09-21T08:54:02.389Z,36.50
2022-09-21T08:57:05.156Z,37.43
2022-09-21T08:59:55.709Z,38.80
2022-09-21T09:03:06.134Z,34.10
2022-09-21T09:06:00.864Z,25.93
2022-09-21T09:09:01.320Z,24.60
2022-09-21T09:12:10.903Z,24.37
2022-09-21T09:15:25.648Z,22.90
2022-09-21T09:18:24.433Z,19.43
2022-09-21T09:21:28.161Z,16.83
2022-09-21T09:24:33.098Z,14.50
2022-09-21T09:27:26.020Z,14.43
2022-09-21T09:30:18.642Z,14.20
2022-09-21T09:33:16.984Z,13.73
2022-09-21T09:36:07.770Z,13.93
2022-09-21T09:38:58.644Z,14.07
2022-09-21T09:42:01.911Z,14.50
2022-09-21T09:45:19.239Z,13.97
2022-09-21T09:48:21.859Z,14.03
2022-09-21T09:51:13.777Z,13.80
2022-09-21T09:54:06.874Z,12.97
2022-09-21T09:56:57.963Z,12.93
2022-09-21T09:59:54.374Z,12.17
2022-09-21T10:02:51.228Z,12.60
2022-09-21T10:05:41.677Z,13.30
2022-09-21T10:08:42.045Z,12.93
2022-09-21T10:11:38.642Z,12.67
2022-09-21T10:14:30.693Z,12.27
2022-09-21T10:17:20.458Z,11.83
2022-09-21T10:20:17.307Z,12.40
2022-09-21T10:23:07.146Z,13.60
2022-09-21T10:26:05.170Z,14.87
2022-09-21T10:28:59.031Z,16.40
2022-09-21T10:31:56.524Z,18.17
2022-09-21T10:35:03.324Z,20.60
2022-09-21T10:38:12.314Z,22.67
2022-09-21T10:41:00.794Z,22.77
2022-09-21T10:43:55.429Z,22.70
2022-09-21T10:46:43.966Z,23.50
2022-09-21T10:49:43.436Z,23.10
2022-09-21T10:52:35.985Z,23.60
2022-09-21T10:55:28.163Z,24.30
2022-09-21T10:58:17.063Z,24.00
2022-09-21T11:01:13.520Z,25.10
2022-09-21T11:04:06.596Z,24.93
2022-09-21T11:07:01.838Z,24.20
2022-09-21T11:09:59.016Z,21.77
2022-09-21T11:12:58.114Z,24.20
2022-09-21T11:15:53.393Z,26.77
2022-09-21T11:18:50.574Z,26.80
2022-09-21T11:21:46.238Z,26.83
2022-09-21T11:24:46.533Z,28.80
2022-09-21T11:27:39.108Z,28.43
2022-09-21T11:30:40.840Z,28.60
2022-09-21T11:33:43.240Z,32.13
2022-09-21T11:36:42.394Z,28.70
2022-09-21T11:39:41.261Z,21.97
2022-09-21T11:42:49.040Z,20.07
2022-09-21T11:45:58.487Z,17.87
2022-09-21T11:49:04.275Z,17.87
2022-09-21T11:52:05.497Z,17.87
2022-09-21T11:55:09.773Z,15.50
2022-09-21T11:58:10.440Z,14.63
2022-09-21T12:01:10.154Z,10.55
2022-09-21T12:04:14.662Z,10.32
2022-09-21T12:07:20.519Z,8.85
2022-09-21T12:10:19.581Z,9.50
2022-09-21T12:13:18.435Z,8.52
2022-09-21T12:16:15.199Z,7.45
2022-09-21T12:19:14.717Z,7.53
2022-09-21T12:22:07.717Z,6.65
2022-09-21T12:24:59.413Z,6.65
2022-09-21T12:27:52.041Z,6.20
2022-09-21T12:30:45.202Z,6.60
2022-09-21T12:33:40.583Z,6.35
2022-09-21T12:36:37.001Z,7.15
2022-09-21T12:39:32.607Z,7.70
2022-09-21T12:42:31.461Z,8.30
2022-09-21T12:45:25.589Z,9.00
2022-09-21T12:48:25.546Z,7.83
2022-09-21T12:51:23.060Z,7.43
2022-09-21T12:54:24.310Z,6.93
2022-09-21T12:57:45.675Z,6.18
2022-09-21T13:00:42.419Z,6.10
2022-09-21T13:03:41.524Z,5.95
2022-09-21T13:07:22.354Z,4.60
2022-09-21T13:10:20.387Z,4.40
2022-09-21T13:13:20.598Z,4.80
2022-09-21T13:16:23.810Z,4.88
2022-09-21T13:19:22.742Z,5.50
2022-09-21T13:22:19.175Z,4.93
2022-09-21T13:25:19.309Z,5.47
2022-09-21T13:28:20.519Z,5.87
2022-09-21T13:31:44.614Z,6.67
2022-09-21T13:34:36.282Z,6.50
2022-09-21T13:37:29.984Z,4.50
2022-09-21T13:40:40.026Z,3.03
2022-09-21T13:44:05.131Z,3.77
2022-09-21T13:46:56.052Z,3.20
2022-09-21T13:49:55.922Z,3.53
2022-09-21T13:52:52.414Z,4.37
2022-09-21T13:55:49.316Z,4.10
2022-09-21T13:58:44.057Z,5.23
2022-09-21T14:01:46.751Z,4.20
2022-09-21T14:04:39.442Z,5.03
2022-09-21T14:07:31.773Z,4.80
2022-09-21T14:10:23.439Z,5.27
2022-09-21T14:13:29.736Z,4.93
2022-09-21T14:16:44.674Z,4.97
2022-09-21T14:20:03.780Z,5.03
2022-09-21T14:23:13.645Z,4.30
2022-09-21T14:26:20.141Z,4.88
2022-09-21T14:29:18.983Z,2.80
2022-09-21T14:32:17.294Z,3.03
2022-09-21T14:35:14.794Z,3.13
2022-09-21T14:38:08.396Z,3.10
2022-09-21T14:41:01.823Z,3.70
2022-09-21T14:43:57.171Z,3.30
2022-09-21T14:47:11.476Z,3.33
2022-09-21T14:50:24.716Z,3.40
2022-09-21T14:53:39.476Z,3.93
2022-09-21T14:56:42.372Z,3.13
2022-09-21T14:59:51.864Z,3.17
2022-09-21T15:02:40.265Z,3.20
2022-09-21T15:05:35.360Z,3.15
2022-09-21T15:09:03.608Z,4.30
2022-09-21T15:12:00.471Z,3.00
2022-09-21T15:15:01.510Z,3.30
2022-09-21T15:17:58.616Z,3.38
2022-09-21T15:21:01.358Z,3.53
2022-09-21T15:23:52.479Z,3.53
2022-09-21T15:26:43.726Z,4.18
2022-09-21T15:29:34.024Z,6.32
2022-09-21T15:32:32.107Z,6.43
2022-09-21T15:35:22.801Z,3.28
2022-09-21T15:38:28.049Z,3.47
2022-09-21T15:41:40.245Z,3.70
2022-09-21T15:44:34.476Z,3.63
2022-09-21T15:47:28.526Z,3.60
2022-09-21T15:50:20.394Z,4.10
2022-09-21T15:53:16.787Z,5.18
2022-09-21T15:56:05.582Z,4.30
2022-09-21T15:59:09.075Z,3.45
2022-09-21T16:02:00.313Z,2.07
2022-09-21T16:04:51.958Z,2.20
2022-09-21T16:07:40.528Z,2.37
2022-09-21T16:10:41.129Z,2.30
2022-09-21T16:13:51.066Z,2.30
2022-09-21T16:17:21.286Z,2.70
2022-09-21T16:20:23.585Z,3.37
2022-09-21T16:23:18.100Z,4.20
2022-09-21T16:26:07.224Z,5.20
2022-09-21T16:29:18.664Z,5.80
2022-09-21T16:32:32.063Z,6.47
2022-09-21T16:35:29.375Z,6.77
2022-09-21T16:38:20.551Z,7.50
2022-09-21T16:41:09.121Z,7.80
2022-09-21T16:44:07.065Z,8.73
2022-09-21T16:46:59.342Z,8.83
2022-09-21T16:49:47.868Z,9.30
2022-09-21T16:52:38.349Z,10.00
2022-09-21T16:55:29.291Z,10.33
2022-09-21T16:58:20.658Z,11.27
2022-09-21T17:01:22.081Z,13.03
2022-09-21T17:04:14.115Z,13.67
2022-09-21T17:07:05.424Z,14.60
2022-09-21T17:09:55.254Z,16.07
2022-09-21T17:12:54.214Z,16.53
2022-09-21T17:15:48.607Z,18.30
2022-09-21T17:18:37.607Z,18.83
2022-09-21T17:21:32.752Z,19.17
2022-09-21T17:24:51.849Z,21.00
2022-09-21T17:27:45.997Z,21.03
2022-09-21T17:30:35.124Z,21.90
2022-09-21T17:33:32.269Z,23.17
2022-09-21T17:36:20.590Z,24.13
2022-09-21T17:39:15.689Z,23.83
2022-09-21T17:42:07.759Z,23.93
2022-09-21T17:45:12.529Z,24.37
2022-09-21T17:48:01.438Z,24.10
2022-09-21T17:50:51.071Z,24.30
2022-09-21T17:53:38.858Z,23.90
2022-09-21T17:56:39.673Z,23.97
2022-09-21T17:59:33.045Z,24.63
2022-09-21T18:02:25.240Z,24.53
2022-09-21T18:05:23.659Z,25.13
2022-09-21T18:08:12.567Z,26.37
2022-09-21T18:11:15.411Z,27.60
2022-09-21T18:14:15.115Z,29.43
2022-09-21T18:17:20.150Z,30.30
2022-09-21T18:20:22.709Z,30.57
2022-09-21T18:23:23.057Z,32.27
2022-09-21T18:26:15.441Z,32.97
2022-09-21T18:29:22.575Z,34.17
2022-09-21T18:32:47.181Z,35.80
2022-09-21T18:35:54.392Z,38.07
2022-09-21T18:38:50.233Z,38.57
2022-09-21T18:41:47.059Z,40.27
2022-09-21T18:44:41.749Z,41.90
2022-09-21T18:47:36.831Z,43.27
2022-09-21T18:50:37.544Z,45.07
2022-09-21T18:53:38.304Z,47.37
2022-09-21T18:56:28.455Z,49.77
2022-09-21T18:59:18.309Z,49.33
2022-09-21T19:02:12.525Z,50.17
2022-09-21T19:05:01.285Z,50.97
2022-09-21T19:08:06.791Z,51.77
2022-09-21T19:11:06.403Z,51.63
2022-09-21T19:14:02.300Z,52.13
2022-09-21T19:17:05.965Z,52.37
2022-09-21T19:20:07.207Z,53.53
2022-09-21T19:23:06.207Z,53.17
2022-09-21T19:26:05.362Z,54.33
2022-09-21T19:29:22.468Z,53.40
2022-09-21T19:32:16.281Z,53.97
2022-09-21T19:35:19.858Z,52.70
2022-09-21T19:38:10.888Z,53.33
2022-09-21T19:41:04.788Z,53.80
2022-09-21T19:43:59.945Z,54.07
2022-09-21T19:46:58.639Z,54.47
2022-09-21T19:49:50.746Z,52.97
2022-09-21T19:52:39.703Z,53.43
2022-09-21T19:55:45.939Z,53.20
2022-09-21T19:58:54.073Z,52.80
2022-09-21T20:01:52.580Z,54.33
2022-09-21T20:04:49.549Z,54.00
2022-09-21T20:07:46.832Z,53.97
2022-09-21T20:10:44.628Z,53.63
2022-09-21T20:13:47.913Z,52.43
2022-09-21T20:16:47.123Z,51.33
2022-09-21T20:19:44.627Z,51.90
2022-09-21T20:22:36.408Z,51.27
2022-09-21T20:25:27.382Z,52.37
2022-09-21T20:28:16.408Z,51.40
2022-09-21T20:31:12.510Z,50.17
2022-09-21T20:34:00.929Z,51.60
2022-09-21T20:36:55.892Z,51.67
2022-09-21T20:39:44.608Z,51.93
2022-09-21T20:42:34.438Z,51.83
2022-09-21T20:45:23.858Z,52.37
2022-09-21T20:48:17.732Z,52.30
2022-09-21T20:51:08.639Z,53.00
2022-09-21T20:53:58.762Z,52.53
2022-09-21T20:56:47.447Z,52.87
2022-09-21T20:59:42.178Z,53.10
2022-09-21T21:02:30.471Z,53.03
2022-09-21T21:05:29.242Z,53.37
2022-09-21T21:08:17.599Z,53.93
2022-09-21T21:11:12.143Z,55.00
2022-09-21T21:14:01.532Z,55.33
2022-09-21T21:16:58.910Z,56.60
2022-09-21T21:19:47.399Z,55.90
2022-09-21T21:22:38.920Z,56.97
2022-09-21T21:25:30.217Z,56.33
2022-09-21T21:28:21.452Z,57.77
2022-09-21T21:31:10.609Z,58.00
2022-09-21T21:34:04.585Z,57.10
2022-09-21T21:36:56.136Z,57.53
2022-09-21T21:39:46.135Z,58.73
2022-09-21T21:42:40.817Z,60.03
2022-09-21T21:45:29.235Z,60.77
2022-09-21T21:48:24.045Z,57.70
2022-09-21T21:51:12.901Z,57.10
2022-09-21T21:54:01.381Z,54.23
2022-09-21T21:56:51.437Z,59.27
2022-09-21T21:59:45.998Z,55.40
2022-09-21T22:02:34.504Z,54.90
2022-09-21T22:05:26.202Z,53.67
2022-09-21T22:08:14.539Z,51.13
2022-09-21T22:11:04.039Z,53.13
2022-09-21T22:14:04.620Z,51.50
2022-09-21T22:16:53.043Z,52.07
2022-09-21T22:19:50.243Z,51.93
2022-09-21T22:22:38.517Z,51.93
2022-09-21T22:25:26.915Z,49.03
2022-09-21T22:28:15.419Z,49.70
2022-09-21T22:31:16.291Z,49.93
2022-09-21T22:34:05.457Z,49.17
2022-09-21T22:37:00.709Z,48.23
2022-09-21T22:39:49.113Z,49.80
2022-09-21T22:42:47.074Z,50.33
2022-09-21T22:45:35.559Z,49.67
2022-09-21T22:48:35.274Z,48.03
2022-09-21T22:51:24.244Z,47.43
2022-09-21T22:54:12.595Z,45.10
2022-09-21T22:57:07.006Z,46.23
2022-09-21T22:59:55.334Z,46.43
2022-09-21T23:02:54.768Z,45.37
2022-09-21T23:05:44.772Z,46.30
2022-09-21T23:08:39.502Z,46.83
2022-09-21T23:11:30.339Z,47.77
2022-09-21T23:14:18.797Z,48.03
2022-09-21T23:17:16.346Z,47.60
2022-09-21T23:20:05.244Z,48.87
2022-09-21T23:23:04.794Z,50.77
2022-09-21T23:26:02.470Z,50.63
2022-09-21T23:28:53.048Z,52.83
2022-09-21T23:31:45.104Z,53.43
2022-09-21T23:34:34.306Z,55.17
2022-09-21T23:37:29.952Z,55.97
2022-09-21T23:40:19.704Z,55.23
2022-09-21T23:43:14.280Z,56.07
2022-09-21T23:46:03.016Z,56.73
2022-09-21T23:48:51.994Z,55.60
2022-09-21T23:51:41.056Z,55.97
2022-09-21T23:54:29.450Z,55.77
2022-09-21T23:57:19.153Z,54.70
